Airport View

Enter AWOS ICAO identifier for current METAR.

ex. KFNL

KCSM 191253Z AUTO 33012KT 10SM CLR 12/08 A2991 RMK AO2 SLP114 T01220083

19 May 2019 13:13

Frequency: 118.450

Phone: 580-562-4811

Other Area AWOS: KELK - KCLK - KHBR - KOJA

TAF KCSM 191123Z 1912/2012 33010KT P6SM SKC FM191600 04009KT P6SM FEW250 FM192100 11012KT P6SM BKN250 FM200900 11013G18KT P6SM BKN025